createdAt,value
2019-04-14T00:00:40.881Z,34.00
2019-04-14T00:04:05.140Z,34.10
2019-04-14T00:07:10.098Z,34.10
2019-04-14T00:10:14.605Z,34.10
2019-04-14T00:13:19.496Z,35.00
2019-04-14T00:16:23.269Z,34.60
2019-04-14T00:19:26.962Z,35.00
2019-04-14T00:22:32.103Z,35.50
2019-04-14T00:25:37.014Z,34.60
2019-04-14T00:28:40.735Z,34.90
2019-04-14T00:31:45.545Z,35.00
2019-04-14T00:35:08.242Z,34.70
2019-04-14T00:38:30.959Z,35.90
2019-04-14T00:41:50.290Z,35.30
2019-04-14T00:44:59.094Z,35.50
2019-04-14T00:48:11.757Z,35.60
2019-04-14T00:51:13.440Z,35.20
2019-04-14T00:54:17.577Z,35.70
2019-04-14T00:57:22.395Z,35.70
2019-04-14T01:00:26.185Z,36.00
2019-04-14T01:03:30.955Z,36.10
2019-04-14T01:06:36.019Z,36.80
2019-04-14T01:09:41.180Z,36.70
2019-04-14T01:12:45.362Z,36.90
2019-04-14T01:15:58.645Z,37.00
2019-04-14T01:18:55.771Z,37.60
2019-04-14T01:21:59.570Z,38.10
2019-04-14T01:25:04.353Z,38.00
2019-04-14T01:28:08.979Z,38.80
2019-04-14T01:31:13.984Z,38.50
2019-04-14T01:34:17.811Z,39.50
2019-04-14T01:37:22.512Z,40.20
2019-04-14T01:40:27.113Z,40.60
2019-04-14T01:43:32.019Z,41.10
2019-04-14T01:46:37.028Z,42.10
2019-04-14T01:49:41.892Z,42.40
2019-04-14T01:52:52.343Z,42.70
2019-04-14T01:56:06.575Z,43.60
2019-04-14T01:59:10.808Z,44.10
2019-04-14T02:02:18.389Z,44.60
2019-04-14T02:05:23.442Z,44.80
2019-04-14T02:08:28.390Z,45.40
2019-04-14T02:11:33.370Z,45.70
2019-04-14T02:14:37.171Z,46.10
2019-04-14T02:17:41.657Z,46.30
2019-04-14T02:20:45.370Z,47.80
2019-04-14T02:23:49.804Z,48.70
2019-04-14T02:26:54.672Z,48.80
2019-04-14T02:29:58.498Z,49.40
2019-04-14T02:33:32.178Z,49.60
2019-04-14T02:39:46.736Z,51.60
2019-04-14T02:42:52.398Z,51.70
2019-04-14T02:45:49.993Z,51.80
2019-04-14T02:48:55.512Z,52.90
2019-04-14T02:52:04.724Z,53.10
2019-04-14T02:55:04.482Z,53.60
2019-04-14T02:58:18.260Z,54.40
2019-04-14T03:01:26.104Z,55.00
2019-04-14T03:07:45.924Z,55.30
2019-04-14T03:10:40.351Z,55.30
2019-04-14T03:17:05.674Z,55.60
2019-04-14T03:20:20.441Z,55.70
2019-04-14T03:23:34.324Z,56.60
2019-04-14T03:26:49.375Z,56.70
2019-04-14T03:30:32.910Z,57.20
2019-04-14T03:33:32.751Z,58.20
2019-04-14T03:37:07.935Z,57.90
2019-04-14T03:39:31.448Z,57.10
2019-04-14T03:51:55.820Z,60.20
2019-04-14T03:54:52.707Z,59.70
2019-04-14T03:57:36.661Z,59.70
2019-04-14T04:00:40.734Z,60.10
2019-04-14T04:03:45.709Z,59.70
2019-04-14T04:06:51.040Z,59.40
2019-04-14T04:10:00.415Z,59.70
2019-04-14T04:13:04.621Z,59.40
2019-04-14T04:16:18.027Z,59.30
2019-04-14T04:19:40.909Z,59.80
2019-04-14T04:22:58.777Z,59.80
2019-04-14T04:26:10.775Z,59.90
2019-04-14T04:29:42.502Z,59.20
2019-04-14T04:33:00.254Z,59.10
2019-04-14T04:36:11.762Z,60.00
2019-04-14T04:39:21.586Z,60.10
2019-04-14T04:42:26.449Z,60.20
2019-04-14T04:45:30.330Z,60.80
2019-04-14T04:48:34.961Z,61.20
2019-04-14T04:51:39.930Z,60.60
2019-04-14T04:54:45.002Z,61.10
2019-04-14T04:57:48.740Z,61.30
2019-04-14T05:00:54.239Z,61.40
2019-04-14T05:03:58.102Z,60.70
2019-04-14T05:07:01.895Z,60.70
2019-04-14T05:10:28.877Z,61.40
2019-04-14T05:13:36.355Z,62.10
2019-04-14T05:16:40.462Z,62.20
2019-04-14T05:19:45.375Z,62.80
2019-04-14T05:22:49.245Z,62.30
2019-04-14T05:25:53.879Z,63.40
2019-04-14T05:28:59.042Z,63.00
2019-04-14T05:32:03.098Z,62.70
2019-04-14T05:35:07.434Z,63.30
2019-04-14T05:38:12.563Z,63.50
2019-04-14T05:41:16.353Z,62.80
2019-04-14T05:44:20.841Z,62.60
2019-04-14T05:47:24.774Z,63.80
2019-04-14T05:50:31.697Z,63.30
2019-04-14T05:53:35.754Z,63.10
2019-04-14T05:56:51.814Z,63.30
2019-04-14T05:59:55.605Z,62.10
2019-04-14T06:02:59.520Z,62.60
2019-04-14T06:06:03.267Z,62.30
2019-04-14T06:09:07.636Z,63.40
2019-04-14T06:12:11.403Z,62.00
2019-04-14T06:15:15.253Z,62.10
2019-04-14T06:18:19.265Z,62.00
2019-04-14T06:21:23.173Z,62.30
2019-04-14T06:24:27.143Z,60.40
2019-04-14T06:27:31.077Z,61.70
2019-04-14T06:30:57.251Z,61.90
2019-04-14T06:34:20.912Z,60.50
2019-04-14T06:37:29.559Z,60.90
2019-04-14T06:40:37.466Z,61.40
2019-04-14T06:43:48.808Z,61.60
2019-04-14T06:46:47.061Z,62.00
2019-04-14T06:49:50.774Z,61.90
2019-04-14T06:52:54.838Z,61.40
2019-04-14T06:55:58.871Z,61.60
2019-04-14T06:59:02.613Z,62.50
2019-04-14T07:02:08.581Z,61.90
2019-04-14T07:05:11.693Z,62.00
2019-04-14T07:08:15.443Z,62.50
2019-04-14T07:11:19.544Z,63.50
2019-04-14T07:14:23.258Z,63.90
2019-04-14T07:17:26.974Z,64.20
2019-04-14T07:20:30.681Z,64.30
2019-04-14T07:23:34.686Z,64.60
2019-04-14T07:26:38.421Z,64.10
2019-04-14T07:29:50.545Z,65.30
2019-04-14T07:33:19.434Z,64.40
2019-04-14T07:36:54.675Z,64.60
2019-04-14T07:40:16.157Z,64.40
2019-04-14T07:43:32.414Z,62.50
2019-04-14T07:46:42.091Z,62.30
2019-04-14T07:49:54.355Z,62.50
2019-04-14T07:53:17.482Z,63.20
2019-04-14T07:56:40.322Z,61.60
2019-04-14T07:59:57.637Z,60.90
2019-04-14T08:03:23.845Z,61.50
2019-04-14T08:06:27.837Z,62.30
2019-04-14T08:09:31.609Z,61.50
2019-04-14T08:12:35.614Z,61.50
2019-04-14T08:15:39.565Z,61.70
2019-04-14T08:18:43.234Z,61.30
2019-04-14T08:21:46.968Z,61.50
2019-04-14T08:24:50.637Z,62.10
2019-04-14T08:27:54.537Z,61.90
2019-04-14T08:30:58.498Z,61.10
2019-04-14T08:34:02.523Z,62.50
2019-04-14T08:37:06.343Z,61.30
2019-04-14T08:40:10.578Z,61.10
2019-04-14T08:43:48.858Z,61.30
2019-04-14T08:47:01.993Z,61.40
2019-04-14T08:50:13.930Z,61.40
2019-04-14T08:53:29.201Z,62.40
2019-04-14T08:56:52.352Z,62.90
2019-04-14T09:00:05.909Z,62.50
2019-04-14T09:03:27.820Z,62.60
2019-04-14T09:06:42.602Z,61.80
2019-04-14T09:09:49.993Z,61.50
2019-04-14T09:12:55.397Z,62.00
2019-04-14T09:15:59.458Z,63.10
2019-04-14T09:19:07.936Z,61.20
2019-04-14T09:22:10.608Z,60.70
2019-04-14T09:25:14.589Z,60.90
2019-04-14T09:28:18.582Z,59.10
2019-04-14T09:31:22.602Z,57.30
2019-04-14T09:34:26.730Z,57.50
2019-04-14T09:37:30.734Z,58.30
2019-04-14T09:40:34.816Z,56.80
2019-04-14T09:43:39.010Z,57.30
2019-04-14T09:46:43.154Z,57.20
2019-04-14T09:49:47.021Z,57.20
2019-04-14T09:52:51.052Z,57.30
2019-04-14T09:55:54.984Z,57.70
2019-04-14T09:58:58.770Z,57.60
2019-04-14T10:02:02.776Z,58.30
2019-04-14T10:05:07.034Z,56.80
2019-04-14T10:08:11.072Z,58.20
2019-04-14T10:11:14.886Z,57.50
2019-04-14T10:14:19.777Z,58.50
2019-04-14T10:17:23.763Z,58.50
2019-04-14T10:20:27.773Z,57.30
2019-04-14T10:23:31.805Z,57.40
2019-04-14T10:26:35.934Z,58.40
2019-04-14T10:29:39.858Z,57.90
2019-04-14T10:32:43.963Z,58.60
2019-04-14T10:35:47.966Z,58.60
2019-04-14T10:38:52.013Z,59.10
2019-04-14T10:41:56.062Z,59.80
2019-04-14T10:45:00.201Z,59.70
2019-04-14T10:48:04.466Z,59.90
2019-04-14T10:51:08.441Z,60.00
2019-04-14T10:54:12.513Z,58.70
2019-04-14T10:57:17.698Z,58.20
2019-04-14T11:00:21.502Z,58.80
2019-04-14T11:03:25.471Z,58.90
2019-04-14T11:06:49.759Z,59.70
2019-04-14T11:09:54.052Z,60.00
2019-04-14T11:12:58.006Z,59.20
2019-04-14T11:16:01.694Z,59.40
2019-04-14T11:19:05.950Z,60.20
2019-04-14T11:22:10.701Z,59.80
2019-04-14T11:25:14.456Z,59.90
2019-04-14T11:28:18.241Z,59.40
2019-04-14T11:31:41.526Z,58.70
2019-04-14T11:34:56.201Z,58.90
2019-04-14T11:38:34.029Z,56.60
2019-04-14T11:41:38.027Z,57.00
2019-04-14T11:44:42.162Z,56.20
2019-04-14T11:47:46.072Z,54.30
2019-04-14T11:50:50.012Z,53.00
2019-04-14T11:53:53.754Z,54.10
2019-04-14T11:56:58.219Z,52.70
2019-04-14T12:00:24.387Z,52.50
2019-04-14T12:03:45.638Z,51.30
2019-04-14T12:07:07.696Z,49.00
2019-04-14T12:10:16.405Z,49.70
2019-04-14T12:13:20.383Z,49.10
2019-04-14T12:16:24.448Z,46.70
2019-04-14T12:19:28.383Z,47.00
2019-04-14T12:22:32.443Z,46.00
2019-04-14T12:25:36.230Z,45.30
2019-04-14T12:28:40.485Z,44.30
2019-04-14T12:31:44.719Z,44.00
2019-04-14T12:34:49.107Z,42.40
2019-04-14T12:37:53.284Z,41.80
2019-04-14T12:40:58.941Z,42.20
2019-04-14T12:44:17.911Z,42.30
2019-04-14T12:47:39.745Z,42.60
2019-04-14T12:50:41.499Z,42.30
2019-04-14T12:53:45.566Z,40.30
2019-04-14T12:56:49.364Z,41.50
2019-04-14T12:59:53.263Z,41.20
2019-04-14T13:02:57.010Z,41.00
2019-04-14T13:06:00.743Z,41.20
2019-04-14T13:09:05.589Z,41.20
2019-04-14T13:12:10.424Z,40.30
2019-04-14T13:15:14.437Z,40.20
2019-04-14T13:18:18.206Z,40.50
2019-04-14T13:21:21.950Z,40.90
2019-04-14T13:24:25.704Z,40.00
2019-04-14T13:27:29.441Z,40.20
2019-04-14T13:30:36.591Z,41.50
2019-04-14T13:33:40.299Z,39.50
2019-04-14T13:36:44.093Z,38.10
2019-04-14T13:39:48.014Z,37.30
2019-04-14T13:42:52.203Z,36.90
2019-04-14T13:45:55.935Z,35.60
2019-04-14T13:49:00.111Z,34.30
2019-04-14T13:52:03.939Z,33.00
2019-04-14T13:55:07.953Z,34.50
2019-04-14T13:58:11.698Z,34.00
2019-04-14T14:01:15.548Z,33.20
2019-04-14T14:04:19.317Z,33.20
2019-04-14T14:07:23.094Z,32.40
2019-04-14T14:10:27.123Z,31.60
2019-04-14T14:13:43.200Z,32.10
2019-04-14T14:17:00.565Z,31.00
2019-04-14T14:20:17.630Z,31.00
2019-04-14T14:23:28.762Z,32.40
2019-04-14T14:26:33.542Z,32.00
2019-04-14T14:29:37.313Z,32.40
2019-04-14T14:32:41.099Z,32.50
2019-04-14T14:35:45.005Z,33.70
2019-04-14T14:38:48.698Z,31.20
2019-04-14T14:41:52.513Z,31.70
2019-04-14T14:45:05.658Z,32.10
2019-04-14T14:48:19.876Z,31.30
2019-04-14T14:51:38.229Z,31.70
2019-04-14T14:54:42.016Z,32.10
2019-04-14T14:57:45.878Z,32.80
2019-04-14T15:00:50.043Z,32.50
2019-04-14T15:03:54.184Z,31.70
2019-04-14T15:06:57.935Z,32.80
2019-04-14T15:10:01.854Z,31.50
2019-04-14T15:13:05.541Z,30.50
2019-04-14T15:16:09.386Z,30.00
2019-04-14T15:19:13.282Z,29.00
2019-04-14T15:22:17.318Z,28.90
2019-04-14T15:25:21.345Z,28.10
2019-04-14T15:28:25.285Z,28.70
2019-04-14T15:31:28.985Z,27.90
2019-04-14T15:34:32.725Z,28.70
2019-04-14T15:37:36.511Z,29.00
2019-04-14T15:40:40.192Z,28.70
2019-04-14T15:43:43.953Z,28.90
2019-04-14T15:46:48.083Z,29.20
2019-04-14T15:49:52.278Z,28.30
2019-04-14T15:52:57.013Z,28.60
2019-04-14T15:56:00.708Z,29.00
2019-04-14T15:59:18.321Z,29.50
2019-04-14T16:02:47.356Z,29.80
2019-04-14T16:06:10.731Z,30.20
2019-04-14T16:09:33.639Z,30.40
2019-04-14T16:12:47.422Z,30.50
2019-04-14T16:15:56.705Z,31.40
2019-04-14T16:19:17.286Z,30.90
2019-04-14T16:22:21.218Z,31.20
2019-04-14T16:25:36.493Z,32.40
2019-04-14T16:28:56.888Z,31.90
2019-04-14T16:32:10.007Z,31.60
2019-04-14T16:35:18.282Z,32.00
2019-04-14T16:38:22.373Z,32.00
2019-04-14T16:41:26.052Z,32.20
2019-04-14T16:44:29.892Z,32.60
2019-04-14T16:47:36.119Z,32.20
2019-04-14T16:50:39.034Z,32.80
2019-04-14T16:53:44.183Z,32.40
2019-04-14T16:57:09.450Z,32.50
2019-04-14T17:00:17.205Z,32.80
2019-04-14T17:03:20.950Z,32.60
2019-04-14T17:06:24.779Z,32.70
2019-04-14T17:09:28.514Z,33.00
2019-04-14T17:12:32.461Z,33.30
2019-04-14T17:16:00.430Z,33.20
2019-04-14T17:19:24.108Z,32.50
2019-04-14T17:22:45.610Z,32.90
2019-04-14T17:25:54.831Z,33.20
2019-04-14T17:29:21.197Z,33.20
2019-04-14T17:32:42.918Z,33.50
2019-04-14T17:35:58.638Z,32.50
2019-04-14T17:39:13.010Z,32.40
2019-04-14T17:42:29.108Z,33.20
2019-04-14T17:45:38.493Z,32.80
2019-04-14T17:49:01.339Z,32.40
2019-04-14T17:52:23.120Z,32.60
2019-04-14T17:55:50.004Z,33.10
2019-04-14T17:58:58.915Z,33.40
2019-04-14T18:02:11.367Z,33.40
2019-04-14T18:05:22.634Z,33.60
2019-04-14T18:08:36.562Z,33.90
2019-04-14T18:11:59.637Z,35.00
2019-04-14T18:15:31.836Z,35.20
2019-04-14T18:18:55.429Z,35.80
2019-04-14T18:21:59.723Z,36.60
2019-04-14T18:25:04.345Z,36.70
2019-04-14T18:28:25.871Z,37.20
2019-04-14T18:31:41.274Z,37.20
2019-04-14T18:35:02.906Z,37.40
2019-04-14T18:38:31.938Z,37.70
2019-04-14T18:42:03.953Z,38.50
2019-04-14T18:45:17.945Z,38.50
2019-04-14T18:48:46.929Z,38.80
2019-04-14T18:52:12.774Z,38.70
2019-04-14T18:55:34.552Z,38.70
2019-04-14T18:58:42.268Z,39.10
2019-04-14T19:01:46.422Z,38.90
2019-04-14T19:04:50.122Z,39.10
2019-04-14T19:07:54.083Z,39.00
2019-04-14T19:11:14.746Z,39.40
2019-04-14T19:14:24.870Z,38.90
2019-04-14T19:17:33.991Z,38.90
2019-04-14T19:20:39.463Z,39.10
2019-04-14T19:23:46.201Z,38.70
2019-04-14T19:26:49.058Z,39.20
2019-04-14T19:29:52.788Z,38.80
2019-04-14T19:32:56.553Z,39.30
2019-04-14T19:36:00.220Z,39.40
2019-04-14T19:39:06.993Z,40.00
2019-04-14T19:42:10.686Z,39.30
2019-04-14T19:45:14.850Z,39.70
2019-04-14T19:48:18.554Z,39.30
2019-04-14T19:51:22.225Z,39.50
2019-04-14T19:54:25.895Z,39.50
2019-04-14T19:57:29.581Z,39.70
2019-04-14T20:00:34.063Z,38.80
2019-04-14T20:03:37.892Z,39.00
2019-04-14T20:06:41.565Z,38.60
2019-04-14T20:09:45.344Z,38.70
2019-04-14T20:12:49.160Z,38.60
2019-04-14T20:16:06.532Z,38.50
2019-04-14T20:19:33.754Z,38.60
2019-04-14T20:22:55.101Z,38.10
2019-04-14T20:26:16.621Z,38.30
2019-04-14T20:29:32.754Z,39.10
2019-04-14T20:32:37.980Z,39.10
2019-04-14T20:35:41.906Z,38.80
2019-04-14T20:38:45.843Z,38.70
2019-04-14T20:41:49.515Z,38.80
2019-04-14T20:44:53.265Z,38.50
2019-04-14T20:47:57.233Z,38.10
2019-04-14T20:51:00.926Z,38.20
2019-04-14T20:54:05.105Z,38.10
2019-04-14T20:57:09.271Z,38.50
2019-04-14T21:00:13.626Z,38.20
2019-04-14T21:03:42.417Z,38.60
2019-04-14T21:06:58.962Z,38.20
2019-04-14T21:10:10.415Z,38.80
2019-04-14T21:13:33.263Z,39.10
2019-04-14T21:16:44.939Z,38.90
2019-04-14T21:20:07.057Z,38.90
2019-04-14T21:23:27.230Z,39.70
2019-04-14T21:26:54.011Z,39.50
2019-04-14T21:30:12.587Z,39.80
2019-04-14T21:33:34.159Z,39.60
2019-04-14T21:37:03.278Z,40.10
2019-04-14T21:40:23.948Z,40.30
2019-04-14T21:43:27.923Z,40.60
2019-04-14T21:46:31.817Z,39.40
2019-04-14T21:49:35.529Z,39.50
2019-04-14T21:52:41.735Z,39.70
2019-04-14T21:55:45.737Z,39.60
2019-04-14T21:59:01.505Z,39.70
2019-04-14T22:02:33.257Z,39.30
2019-04-14T22:05:48.770Z,39.50
2019-04-14T22:08:53.422Z,39.40
2019-04-14T22:11:58.257Z,39.70
2019-04-14T22:15:02.018Z,39.70
2019-04-14T22:18:05.943Z,39.60
2019-04-14T22:21:09.633Z,39.90
2019-04-14T22:24:13.381Z,39.70
2019-04-14T22:27:17.177Z,39.40
2019-04-14T22:30:21.053Z,39.90
2019-04-14T22:33:24.810Z,39.60
2019-04-14T22:36:29.422Z,39.50
2019-04-14T22:39:33.057Z,39.40
2019-04-14T22:42:36.755Z,39.30
2019-04-14T22:45:40.456Z,38.60
2019-04-14T22:48:44.105Z,39.10
2019-04-14T22:51:48.055Z,39.00
2019-04-14T22:54:51.750Z,39.10
2019-04-14T22:57:55.426Z,39.00
2019-04-14T23:01:19.729Z,39.30
2019-04-14T23:04:35.382Z,39.30
2019-04-14T23:07:56.743Z,39.30
2019-04-14T23:11:18.642Z,38.70
2019-04-14T23:14:44.659Z,38.20
2019-04-14T23:17:54.551Z,38.30
2019-04-14T23:21:24.485Z,38.80
2019-04-14T23:24:34.505Z,38.20
2019-04-14T23:27:38.479Z,38.20
2019-04-14T23:30:42.578Z,38.70
2019-04-14T23:33:46.370Z,38.80
2019-04-14T23:36:50.102Z,38.60
2019-04-14T23:39:53.810Z,38.00
2019-04-14T23:42:57.554Z,38.40
2019-04-14T23:46:01.323Z,38.30
2019-04-14T23:49:05.390Z,38.70
2019-04-14T23:52:09.667Z,38.70
2019-04-14T23:55:13.694Z,38.20
2019-04-14T23:58:17.401Z,38.20
